Time;durP1;ratioP1;P1;durP2;ratioP2;P2;SDS_P1;SDS_P2;PMS_P1;PMS_P2;Temp;Humidity;BMP_temperature;BMP_pressure;BME280_temperature;BME280_humidity;BME280_pressure;Samples;Min_cycle;Max_cycle;Signal;HPM_P1;HPM_P2
2022/06/28 00:01:20;;;;;;;9.52;2.92;;;16.10;99.90;;;;;;4954463;28;20023;-81
2022/06/28 00:03:46;;;;;;;16.52;3.15;;;16.20;99.90;;;;;;4956479;28;20027;-81
2022/06/28 00:06:12;;;;;;;12.10;3.40;;;16.20;99.90;;;;;;4955799;28;20034;-81
2022/06/28 00:08:38;;;;;;;7.57;2.90;;;16.10;99.90;;;;;;4955846;28;20042;-81
2022/06/28 00:11:04;;;;;;;10.35;2.78;;;16.20;99.90;;;;;;4955362;28;20023;-81
2022/06/28 00:13:30;;;;;;;20.95;3.42;;;16.20;99.90;;;;;;4955487;28;20399;-81
2022/06/28 00:16:04;;;;;;;12.07;3.72;;;16.20;99.90;;;;;;4955561;28;20128;-81
2022/06/28 00:18:35;;;;;;;9.85;2.80;;;16.20;99.90;;;;;;4954014;28;20039;-81
2022/06/28 00:21:01;;;;;;;14.43;3.95;;;16.20;99.90;;;;;;4955577;28;20034;-81
2022/06/28 00:23:29;;;;;;;14.75;3.28;;;16.20;99.90;;;;;;4955031;28;20023;-81
2022/06/28 00:25:54;;;;;;;8.73;3.58;;;16.20;99.90;;;;;;4954373;28;20027;-81
2022/06/28 00:28:20;;;;;;;10.30;3.53;;;16.10;99.90;;;;;;4955131;28;20035;-81
2022/06/28 00:30:46;;;;;;;10.50;3.55;;;16.20;99.90;;;;;;4955491;28;20032;-81
2022/06/28 00:33:12;;;;;;;12.75;3.95;;;16.20;99.90;;;;;;4954885;28;20387;-81
2022/06/28 00:35:38;;;;;;;11.77;3.58;;;16.20;99.90;;;;;;4955284;28;20144;-82
2022/06/28 00:38:04;;;;;;;12.35;3.45;;;16.10;99.90;;;;;;4954760;28;20023;-82
2022/06/28 00:40:32;;;;;;;9.20;3.83;;;16.20;99.90;;;;;;4955212;28;20027;-82
2022/06/28 00:42:58;;;;;;;13.98;3.58;;;16.20;99.90;;;;;;4954165;28;20111;-82
2022/06/28 00:45:23;;;;;;;10.50;3.58;;;16.20;99.90;;;;;;4953628;28;20542;-81
2022/06/28 00:47:49;;;;;;;11.35;4.22;;;16.20;99.90;;;;;;4955142;28;20380;-81
2022/06/28 00:50:16;;;;;;;13.63;3.72;;;16.20;99.90;;;;;;4954976;28;20050;-82
2022/06/28 00:53:01;;;;;;;15.52;4.35;;;16.20;99.90;;;;;;4953401;28;20027;-81
2022/06/28 00:55:27;;;;;;;12.00;3.78;;;16.20;99.90;;;;;;4954822;28;20099;-82
2022/06/28 00:57:52;;;;;;;14.07;4.55;;;16.20;99.90;;;;;;4955056;28;20110;-81
2022/06/28 01:00:18;;;;;;;12.40;4.45;;;16.10;99.90;;;;;;4954764;28;20458;-81
2022/06/28 01:02:44;;;;;;;10.30;3.63;;;16.10;99.90;;;;;;4954723;28;20145;-81
2022/06/28 01:05:09;;;;;;;16.00;4.53;;;16.10;99.90;;;;;;4954905;28;20023;-81
2022/06/28 01:07:35;;;;;;;11.95;3.70;;;16.10;99.90;;;;;;4953036;29;20031;-81
2022/06/28 01:10:01;;;;;;;13.20;4.00;;;16.10;99.90;;;;;;4954179;28;20058;-81
2022/06/28 01:12:27;;;;;;;10.32;3.65;;;16.10;99.90;;;;;;4954498;28;20031;-81
2022/06/28 01:14:52;;;;;;;8.65;3.58;;;16.10;99.90;;;;;;4954151;28;20035;-81
2022/06/28 01:17:18;;;;;;;11.85;3.90;;;16.10;99.90;;;;;;4944319;28;20496;-81
2022/06/28 01:19:44;;;;;;;8.25;3.70;;;16.10;99.90;;;;;;4935388;29;20046;-81
2022/06/28 01:22:11;;;;;;;10.30;3.55;;;16.10;99.90;;;;;;4935360;29;20028;-81
2022/06/28 01:24:37;;;;;;;11.65;4.45;;;16.10;99.90;;;;;;4935283;29;20015;-81
2022/06/28 01:27:04;;;;;;;8.23;3.83;;;16.10;99.90;;;;;;4966032;28;20111;-81
2022/06/28 01:29:31;;;;;;;11.00;3.30;;;16.10;99.90;;;;;;4934182;29;20051;-82
2022/06/28 01:31:57;;;;;;;9.40;4.35;;;16.10;99.90;;;;;;4952967;28;20399;-81
2022/06/28 01:34:23;;;;;;;13.60;3.95;;;16.10;99.90;;;;;;4954324;28;20037;-82
2022/06/28 01:36:49;;;;;;;9.07;3.53;;;16.10;99.90;;;;;;4954057;28;20069;-82
2022/06/28 01:39:15;;;;;;;10.13;4.15;;;16.10;99.90;;;;;;4953722;28;20063;-82
2022/06/28 01:41:43;;;;;;;9.82;3.40;;;16.10;99.90;;;;;;4954241;28;20462;-82
2022/06/28 01:44:10;;;;;;;13.85;3.75;;;16.00;99.90;;;;;;4952854;28;20023;-81
2022/06/28 01:46:37;;;;;;;10.73;3.08;;;16.10;99.90;;;;;;4953941;28;20027;-81
2022/06/28 01:49:05;;;;;;;15.75;3.38;;;16.10;99.90;;;;;;4952821;29;20023;-81
2022/06/28 01:51:31;;;;;;;13.95;3.90;;;16.10;99.90;;;;;;4953885;28;20480;-82
2022/06/28 01:53:57;;;;;;;11.45;3.80;;;16.10;99.90;;;;;;4954043;28;20082;-82
2022/06/28 01:56:24;;;;;;;11.25;3.88;;;16.00;99.90;;;;;;4953477;28;20031;-82
2022/06/28 01:58:50;;;;;;;10.98;3.28;;;16.00;99.90;;;;;;4952859;29;20026;-82
2022/06/28 02:01:15;;;;;;;14.63;3.25;;;16.00;99.90;;;;;;4954203;28;20023;-81
2022/06/28 02:03:41;;;;;;;11.55;3.47;;;16.00;99.90;;;;;;4953614;28;20432;-82
2022/06/28 02:06:08;;;;;;;10.38;4.00;;;16.00;99.90;;;;;;4953675;28;20027;-81
2022/06/28 02:08:35;;;;;;;14.45;3.72;;;16.00;99.90;;;;;;4953691;28;20364;-81
2022/06/28 02:11:02;;;;;;;7.03;3.13;;;16.00;99.90;;;;;;4952689;29;20085;-81
2022/06/28 02:13:27;;;;;;;8.95;3.30;;;16.00;99.90;;;;;;4952384;29;20166;-81
2022/06/28 02:15:53;;;;;;;9.18;3.13;;;16.10;99.90;;;;;;4943033;28;20519;-81
2022/06/28 02:18:19;;;;;;;9.90;3.75;;;16.00;99.90;;;;;;4956761;29;20023;-81
2022/06/28 02:20:45;;;;;;;10.23;3.45;;;16.00;99.90;;;;;;4957081;28;20062;-81
2022/06/28 02:23:11;;;;;;;9.30;3.30;;;16.00;99.90;;;;;;4957612;28;20483;-81
2022/06/28 02:25:36;;;;;;;7.93;3.50;;;16.00;99.90;;;;;;4956693;28;20031;-81
2022/06/28 02:28:03;;;;;;;10.20;3.70;;;16.00;99.90;;;;;;4956389;28;20542;-81
2022/06/28 02:30:28;;;;;;;13.02;3.70;;;16.00;99.90;;;;;;4957488;28;20028;-81
2022/06/28 02:32:54;;;;;;;12.20;3.55;;;16.00;99.90;;;;;;4957629;28;20035;-81
2022/06/28 02:40:48;;;;;;;8.18;3.17;;;16.00;99.90;;;;;;4957388;29;20034;-81
2022/06/28 02:43:14;;;;;;;10.57;3.55;;;15.90;99.90;;;;;;4957619;28;20394;-81
2022/06/28 02:45:42;;;;;;;9.63;2.80;;;16.00;99.90;;;;;;4957155;28;20027;-81
2022/06/28 02:48:08;;;;;;;14.18;3.65;;;16.00;99.90;;;;;;4956975;28;20082;-81
2022/06/28 02:50:34;;;;;;;12.48;3.22;;;15.90;99.90;;;;;;4955403;28;20027;-81
2022/06/28 02:53:00;;;;;;;8.30;3.47;;;15.90;99.90;;;;;;4957104;28;20030;-81
2022/06/28 02:55:27;;;;;;;12.82;3.45;;;15.90;99.90;;;;;;4957447;28;20035;-81
2022/06/28 02:57:53;;;;;;;15.73;3.28;;;15.90;99.90;;;;;;4956535;28;20023;-81
2022/06/28 03:00:20;;;;;;;9.48;3.28;;;15.90;99.90;;;;;;4957056;28;20546;-81
2022/06/28 03:02:47;;;;;;;9.93;3.15;;;15.90;99.90;;;;;;4955133;28;20477;-81
2022/06/28 03:05:18;;;;;;;10.48;3.15;;;15.90;99.90;;;;;;4956919;28;20110;-81
2022/06/28 03:07:44;;;;;;;12.35;3.17;;;15.90;99.90;;;;;;4957042;28;20150;-80
2022/06/28 03:10:11;;;;;;;11.00;3.28;;;15.80;99.90;;;;;;4956860;28;20431;-80
2022/06/28 03:12:37;;;;;;;7.03;2.90;;;15.90;99.90;;;;;;4956571;28;20369;-80
2022/06/28 03:15:04;;;;;;;8.35;3.22;;;15.90;99.90;;;;;;4956853;28;20031;-82
2022/06/28 03:17:30;;;;;;;11.43;4.00;;;15.90;99.90;;;;;;4954741;28;20143;-81
2022/06/28 03:19:56;;;;;;;10.73;2.70;;;15.90;99.90;;;;;;4955208;29;20106;-81
2022/06/28 03:22:21;;;;;;;13.68;3.17;;;15.90;99.90;;;;;;4955325;29;20557;-81
2022/06/28 03:24:47;;;;;;;7.93;3.00;;;15.90;99.90;;;;;;4956891;28;20066;-81
2022/06/28 03:27:13;;;;;;;8.15;3.22;;;15.90;99.90;;;;;;4956244;28;20058;-81
2022/06/28 03:29:39;;;;;;;9.20;2.65;;;15.90;99.90;;;;;;4955259;28;20376;-81
2022/06/28 03:32:05;;;;;;;12.95;2.95;;;15.90;99.90;;;;;;4954934;28;20031;-81
2022/06/28 03:34:31;;;;;;;13.77;3.10;;;15.90;99.90;;;;;;4956179;28;20423;-81
2022/06/28 03:36:57;;;;;;;12.20;3.00;;;15.80;99.90;;;;;;4954173;29;20036;-81
2022/06/28 03:39:22;;;;;;;15.77;3.20;;;15.80;99.90;;;;;;4956446;28;20031;-81
2022/06/28 03:41:48;;;;;;;16.35;3.25;;;15.80;99.90;;;;;;4955847;28;20103;-80
2022/06/28 03:44:14;;;;;;;12.45;2.92;;;15.80;99.90;;;;;;4956297;29;20027;-80
2022/06/28 03:46:39;;;;;;;9.20;3.03;;;15.80;99.90;;;;;;4954740;28;20403;-81
2022/06/28 03:49:05;;;;;;;8.40;2.75;;;15.70;99.90;;;;;;4956006;28;20019;-81
2022/06/28 03:51:31;;;;;;;13.55;3.72;;;15.70;99.90;;;;;;4953899;28;20119;-82
2022/06/28 03:53:57;;;;;;;7.38;2.60;;;15.70;99.90;;;;;;4955737;28;20035;-81
2022/06/28 03:56:23;;;;;;;12.52;3.45;;;15.80;99.90;;;;;;4954872;29;20055;-81
2022/06/28 03:58:48;;;;;;;13.00;3.45;;;15.80;99.90;;;;;;4955494;28;20038;-81
2022/06/28 04:01:14;;;;;;;8.45;2.92;;;15.70;99.90;;;;;;4945334;28;20115;-81
2022/06/28 04:03:40;;;;;;;9.25;2.80;;;15.70;99.90;;;;;;4936420;29;20480;-81
2022/06/28 04:06:06;;;;;;;11.82;3.05;;;15.70;99.90;;;;;;4937029;29;20024;-81
2022/06/28 04:08:31;;;;;;;9.05;2.88;;;15.60;99.90;;;;;;4937149;29;20504;-81
2022/06/28 04:11:16;;;;;;;8.48;3.38;;;15.70;99.90;;;;;;4944472;29;20034;-81
2022/06/28 04:13:44;;;;;;;10.02;2.65;;;15.70;99.90;;;;;;4955684;28;20037;-79
2022/06/28 04:16:12;;;;;;;13.13;3.10;;;15.70;99.90;;;;;;4954823;28;20047;-82
2022/06/28 04:18:38;;;;;;;6.28;2.45;;;15.60;99.90;;;;;;4954112;29;20039;-80
2022/06/28 04:21:03;;;;;;;7.47;2.92;;;15.60;99.90;;;;;;4955503;28;20078;-81
2022/06/28 04:23:29;;;;;;;7.15;3.33;;;15.70;99.90;;;;;;4954518;28;20027;-81
2022/06/28 04:25:55;;;;;;;14.40;3.17;;;15.70;99.90;;;;;;4955308;28;20099;-80
2022/06/28 04:28:21;;;;;;;10.30;3.10;;;15.70;99.90;;;;;;4955249;28;20106;-83
2022/06/28 04:30:46;;;;;;;11.30;2.65;;;15.60;99.90;;;;;;4953645;28;20027;-83
2022/06/28 04:33:12;;;;;;;8.43;2.80;;;15.60;99.90;;;;;;4952355;28;20070;-83
2022/06/28 04:35:38;;;;;;;19.77;3.08;;;15.60;99.90;;;;;;4936440;29;20031;-83
2022/06/28 04:38:03;;;;;;;12.18;3.45;;;15.60;99.90;;;;;;4935584;29;20027;-83
2022/06/28 04:40:29;;;;;;;5.78;2.90;;;15.60;99.90;;;;;;4939870;29;20098;-82
2022/06/28 04:42:55;;;;;;;9.23;2.80;;;15.70;99.90;;;;;;4944045;28;20042;-82
2022/06/28 04:45:21;;;;;;;16.88;3.03;;;15.70;99.90;;;;;;4935468;29;20030;-81
2022/06/28 04:47:47;;;;;;;7.55;2.92;;;15.70;99.90;;;;;;4952726;29;20030;-81
2022/06/28 04:50:13;;;;;;;11.52;3.00;;;15.70;99.90;;;;;;4942502;28;20072;-80
2022/06/28 04:52:39;;;;;;;10.02;2.50;;;15.60;99.90;;;;;;4938440;29;20032;-82
2022/06/28 04:55:07;;;;;;;11.35;2.95;;;15.60;99.90;;;;;;4954669;28;20372;-82
2022/06/28 04:57:32;;;;;;;6.80;2.60;;;15.70;99.90;;;;;;4935899;29;20510;-82
2022/06/28 04:59:59;;;;;;;14.85;2.90;;;15.70;99.90;;;;;;4935179;29;20106;-74
2022/06/28 05:02:26;;;;;;;16.38;3.30;;;15.80;99.90;;;;;;4945130;29;20479;-81
2022/06/28 05:04:52;;;;;;;10.13;2.50;;;15.70;99.90;;;;;;4953665;28;20598;-81
2022/06/28 05:07:17;;;;;;;13.40;3.30;;;15.80;99.90;;;;;;4953760;28;20150;-81
2022/06/28 05:09:43;;;;;;;6.95;2.30;;;15.80;99.90;;;;;;4953172;28;20030;-81
2022/06/28 05:12:09;;;;;;;7.70;2.70;;;15.80;99.90;;;;;;4953408;28;20399;-81
2022/06/28 05:14:34;;;;;;;7.03;2.33;;;15.70;99.90;;;;;;4953293;28;20026;-81
2022/06/28 05:17:01;;;;;;;8.38;2.33;;;15.80;99.90;;;;;;4951193;28;20122;-80
2022/06/28 05:19:28;;;;;;;9.02;3.00;;;15.80;99.90;;;;;;4940518;29;20483;-80
2022/06/28 05:21:54;;;;;;;9.77;3.08;;;15.80;99.90;;;;;;4953705;28;20024;-81
2022/06/28 05:24:19;;;;;;;12.15;3.22;;;15.80;99.90;;;;;;4954006;28;20026;-81
2022/06/28 05:26:45;;;;;;;17.55;3.00;;;15.70;99.90;;;;;;4954450;28;20415;-81
2022/06/28 05:29:11;;;;;;;10.23;3.03;;;15.80;99.90;;;;;;4953585;28;20048;-81
2022/06/28 05:31:37;;;;;;;10.02;3.10;;;15.80;99.90;;;;;;4954501;28;20069;-81
2022/06/28 05:34:02;;;;;;;8.27;2.70;;;15.80;99.90;;;;;;4952517;28;20125;-81
2022/06/28 05:36:28;;;;;;;21.58;2.97;;;15.90;99.90;;;;;;4954640;28;20075;-81
2022/06/28 05:38:54;;;;;;;7.00;2.40;;;15.90;99.90;;;;;;4952781;28;20027;-81
2022/06/28 05:41:20;;;;;;;9.05;2.58;;;15.90;99.90;;;;;;4954467;28;20027;-81
2022/06/28 05:43:45;;;;;;;10.75;2.83;;;15.90;99.90;;;;;;4953830;28;20022;-80
2022/06/28 05:46:11;;;;;;;9.95;2.58;;;16.00;99.90;;;;;;4954570;28;20038;-81
2022/06/28 05:48:36;;;;;;;17.00;3.45;;;16.00;99.90;;;;;;4954768;28;20027;-81
2022/06/28 05:51:03;;;;;;;7.50;2.30;;;16.10;99.90;;;;;;4952341;28;20122;-81
2022/06/28 05:53:29;;;;;;;12.43;2.88;;;16.10;99.90;;;;;;4954319;28;20030;-81
2022/06/28 05:55:55;;;;;;;9.50;2.58;;;16.10;99.90;;;;;;4939740;28;20031;-80
2022/06/28 05:58:21;;;;;;;12.40;2.58;;;16.10;99.90;;;;;;4935392;29;20019;-81
2022/06/28 06:00:47;;;;;;;6.78;2.53;;;16.30;99.90;;;;;;4935334;29;20020;-81
2022/06/28 06:03:13;;;;;;;9.02;2.13;;;16.30;99.90;;;;;;4934404;29;20024;-81
2022/06/28 06:05:39;;;;;;;13.30;2.42;;;16.30;99.90;;;;;;4941777;29;20570;-81
2022/06/28 06:08:05;;;;;;;13.85;2.60;;;16.40;99.90;;;;;;4952614;28;20027;-81
2022/06/28 06:10:30;;;;;;;9.18;2.88;;;16.50;99.90;;;;;;4953214;28;20023;-82
2022/06/28 06:12:56;;;;;;;10.30;2.50;;;16.50;99.90;;;;;;4952642;28;20085;-82
2022/06/28 17:29:45;;;;;;;4.18;1.27;;;25.70;58.30;;;;;;4896124;29;20106;-86
2022/06/28 17:32:12;;;;;;;5.05;1.35;;;25.80;59.40;;;;;;4899809;29;20036;-86
2022/06/28 17:34:39;;;;;;;3.30;1.17;;;25.80;59.40;;;;;;4896141;29;20060;-86
2022/06/28 17:37:05;;;;;;;2.28;1.05;;;25.70;59.30;;;;;;4910670;29;20060;-87
2022/06/28 17:39:32;;;;;;;9.07;1.48;;;25.70;60.50;;;;;;4897124;29;20021;-86
2022/06/28 17:41:57;;;;;;;4.72;1.00;;;25.80;59.70;;;;;;4895704;29;20099;-83
2022/06/28 17:44:23;;;;;;;4.28;1.20;;;25.80;60.30;;;;;;4897483;29;20148;-87
2022/06/28 17:46:49;;;;;;;4.05;1.20;;;25.60;60.80;;;;;;4911994;29;20048;-85
2022/06/28 17:49:19;;;;;;;8.43;1.35;;;25.60;60.20;;;;;;4897130;29;20032;-78
2022/06/28 17:51:48;;;;;;;2.60;1.00;;;25.60;60.10;;;;;;4895530;29;20511;-90
2022/06/28 17:54:14;;;;;;;3.08;1.30;;;25.50;60.50;;;;;;4896420;29;20028;-89
2022/06/28 17:56:40;;;;;;;3.80;1.48;;;25.40;61.20;;;;;;4911454;29;20040;-89
2022/06/28 17:59:06;;;;;;;2.40;0.90;;;25.50;62.00;;;;;;4897152;29;20024;-87
2022/06/28 18:01:33;;;;;;;3.15;1.38;;;25.50;60.50;;;;;;4896486;29;20027;-88
2022/06/28 18:04:16;;;;;;;6.03;1.60;;;25.40;61.40;;;;;;4897707;29;20032;-85
2022/06/28 18:06:43;;;;;;;4.53;1.33;;;25.30;61.90;;;;;;4883293;29;20028;-86
2022/06/28 18:09:09;;;;;;;5.68;1.15;;;25.30;61.80;;;;;;4888242;29;20433;-83
2022/06/28 18:11:35;;;;;;;5.32;1.20;;;25.10;61.60;;;;;;4898178;29;20024;-88
2022/06/28 18:14:00;;;;;;;6.15;1.35;;;24.90;61.70;;;;;;4895099;29;20441;-85
2022/06/28 18:16:27;;;;;;;4.07;1.25;;;24.90;61.90;;;;;;4896389;29;20496;-94
2022/06/28 18:18:55;;;;;;;5.47;1.63;;;24.90;63.20;;;;;;4896152;29;20016;-89
2022/06/28 18:21:21;;;;;;;4.53;1.42;;;24.90;62.50;;;;;;4894866;29;20031;-90
2022/06/28 18:23:46;;;;;;;3.50;1.30;;;24.90;63.80;;;;;;4891431;29;20021;-88
2022/06/28 18:26:12;;;;;;;2.75;1.20;;;24.80;62.80;;;;;;4895990;29;20036;-88
2022/06/28 18:28:38;;;;;;;3.55;1.40;;;24.70;63.00;;;;;;4896770;29;20055;-87
2022/06/28 18:31:05;;;;;;;8.15;1.65;;;24.60;64.10;;;;;;4881518;29;20032;-88
2022/06/28 18:33:30;;;;;;;6.93;1.38;;;24.60;63.40;;;;;;4878282;29;20065;-85
2022/06/28 18:35:56;;;;;;;5.20;1.67;;;24.50;63.30;;;;;;4885124;29;20059;-85
2022/06/28 18:38:22;;;;;;;4.10;1.60;;;24.40;63.80;;;;;;4900957;29;20039;-87
2022/06/28 18:40:48;;;;;;;9.85;2.58;;;24.40;63.80;;;;;;4889651;29;20027;-85
2022/06/28 18:43:13;;;;;;;2.78;1.42;;;24.40;64.90;;;;;;4901573;29;20025;-87
2022/06/28 18:45:39;;;;;;;5.57;1.20;;;24.30;64.70;;;;;;4895932;29;20543;-85
2022/06/28 18:48:07;;;;;;;5.07;1.48;;;24.20;65.00;;;;;;4889856;29;20033;-87
2022/06/28 18:50:33;;;;;;;3.42;1.23;;;24.00;65.50;;;;;;4900999;29;20115;-89
2022/06/28 18:52:59;;;;;;;7.00;1.45;;;24.00;66.00;;;;;;4883400;29;20553;-88
2022/06/28 18:55:25;;;;;;;7.30;1.40;;;23.90;65.90;;;;;;4881738;29;20077;-88
2022/06/28 18:57:51;;;;;;;4.40;1.15;;;23.90;66.90;;;;;;4884591;29;20067;-87
2022/06/28 19:00:18;;;;;;;4.18;1.40;;;23.80;65.80;;;;;;4881488;29;20021;-87
2022/06/28 19:02:44;;;;;;;4.68;1.58;;;23.70;66.70;;;;;;4897959;29;20020;-85
2022/06/28 19:05:10;;;;;;;2.67;1.20;;;23.60;66.30;;;;;;4899084;29;20099;-84
2022/06/28 19:07:37;;;;;;;6.43;1.38;;;23.50;66.70;;;;;;4892132;29;20024;-85
2022/06/28 19:10:04;;;;;;;8.10;1.60;;;23.50;67.50;;;;;;4889848;29;20028;-84
2022/06/28 19:12:29;;;;;;;4.18;1.65;;;23.40;67.90;;;;;;4886747;29;20033;-85
2022/06/28 19:14:55;;;;;;;4.43;1.92;;;23.30;67.70;;;;;;4885378;29;20024;-84
2022/06/28 19:17:21;;;;;;;13.23;1.92;;;23.20;68.30;;;;;;4896565;29;20037;-84
2022/06/28 19:19:47;;;;;;;4.00;1.70;;;23.20;68.60;;;;;;4880976;29;20113;-84
2022/06/28 19:22:12;;;;;;;5.85;1.77;;;23.20;68.70;;;;;;4888518;29;20052;-85
2022/06/28 19:24:38;;;;;;;3.63;1.38;;;23.10;68.70;;;;;;4901238;29;20029;-84
2022/06/28 19:27:04;;;;;;;5.65;1.60;;;23.10;68.80;;;;;;4896661;29;20564;-85
2022/06/28 19:29:30;;;;;;;8.35;1.98;;;23.10;69.30;;;;;;4889010;29;20080;-92
2022/06/28 19:31:56;;;;;;;4.38;1.38;;;23.00;69.10;;;;;;4888096;29;20481;-85
2022/06/28 19:34:22;;;;;;;7.85;1.52;;;22.90;69.30;;;;;;4888831;29;20084;-84
2022/06/28 19:36:48;;;;;;;2.58;1.33;;;22.90;69.30;;;;;;4892784;29;20039;-84
2022/06/28 19:39:16;;;;;;;4.75;1.25;;;22.90;70.10;;;;;;4885350;29;20025;-85
2022/06/28 19:41:44;;;;;;;6.45;1.30;;;22.80;70.10;;;;;;4895661;29;20039;-84
2022/06/28 19:44:11;;;;;;;3.15;1.33;;;22.70;69.70;;;;;;4891632;29;20369;-84
2022/06/28 19:46:37;;;;;;;6.38;3.05;;;22.70;69.80;;;;;;4891333;29;20032;-83
2022/06/28 19:49:03;;;;;;;4.75;1.50;;;22.70;70.50;;;;;;4887799;29;20033;-83
2022/06/28 19:51:29;;;;;;;3.17;1.20;;;22.60;69.80;;;;;;4887870;29;20528;-83
2022/06/28 19:53:55;;;;;;;4.22;1.38;;;22.60;70.60;;;;;;4898026;29;20021;-83
2022/06/28 19:56:20;;;;;;;5.18;1.40;;;22.50;70.80;;;;;;4890492;29;20036;-84
2022/06/28 19:58:46;;;;;;;5.88;1.42;;;22.50;70.80;;;;;;4886154;29;20040;-83
2022/06/28 20:01:12;;;;;;;8.65;1.70;;;22.50;71.10;;;;;;4891817;29;20039;-83
2022/06/28 20:03:37;;;;;;;4.00;1.23;;;22.50;71.20;;;;;;4885001;29;20096;-83
2022/06/28 20:06:03;;;;;;;8.30;1.60;;;22.40;71.50;;;;;;4893224;29;20077;-83
2022/06/28 20:08:29;;;;;;;7.40;1.67;;;22.40;71.80;;;;;;4887691;29;20032;-83
2022/06/28 20:10:55;;;;;;;3.40;1.38;;;22.30;71.60;;;;;;4892011;29;20033;-83
2022/06/28 20:13:21;;;;;;;4.28;1.30;;;22.30;71.80;;;;;;4895227;29;20035;-84
2022/06/28 20:15:48;;;;;;;5.38;1.52;;;22.30;72.00;;;;;;4883626;29;20013;-83
2022/06/28 20:18:13;;;;;;;6.20;1.50;;;22.20;72.10;;;;;;4888650;29;20043;-86
2022/06/28 20:20:39;;;;;;;6.55;1.77;;;22.20;73.90;;;;;;4887839;29;20032;-83
2022/06/28 20:23:05;;;;;;;8.90;1.38;;;22.10;73.70;;;;;;4892204;29;20025;-84
2022/06/28 20:25:30;;;;;;;4.88;1.40;;;22.10;72.90;;;;;;4892993;29;20035;-83
2022/06/28 20:27:56;;;;;;;5.53;1.67;;;22.10;74.20;;;;;;4890141;29;20044;-84
2022/06/28 20:30:22;;;;;;;7.57;1.88;;;22.00;74.10;;;;;;4889607;29;20115;-84
2022/06/28 20:32:48;;;;;;;4.65;1.20;;;22.00;76.40;;;;;;4885860;29;20121;-84
2022/06/28 20:35:13;;;;;;;4.78;1.20;;;22.00;76.40;;;;;;4885936;29;20048;-84
2022/06/28 20:37:39;;;;;;;3.38;1.60;;;21.70;77.90;;;;;;4881781;29;20061;-84
2022/06/28 20:40:06;;;;;;;4.65;1.70;;;21.60;80.50;;;;;;4891624;29;20024;-84
2022/06/28 20:42:32;;;;;;;5.03;1.60;;;21.50;82.90;;;;;;4883802;29;20076;-84
2022/06/28 20:44:58;;;;;;;5.65;1.38;;;21.30;82.60;;;;;;4885734;29;20446;-84
2022/06/28 20:47:24;;;;;;;4.50;1.58;;;21.20;84.10;;;;;;4885823;29;20540;-84
2022/06/28 20:49:50;;;;;;;4.25;1.42;;;21.10;84.10;;;;;;4889730;29;20028;-84
2022/06/28 20:52:16;;;;;;;4.88;1.42;;;21.20;85.00;;;;;;4895059;29;20024;-84
2022/06/28 20:54:43;;;;;;;6.30;1.58;;;21.10;86.00;;;;;;4896731;29;20037;-84
2022/06/28 20:57:09;;;;;;;4.70;1.55;;;21.00;86.80;;;;;;4894137;29;20089;-84
2022/06/28 20:59:36;;;;;;;3.97;1.48;;;21.00;86.90;;;;;;4887312;29;20040;-84
2022/06/28 21:02:03;;;;;;;7.78;1.80;;;20.90;88.30;;;;;;4897598;29;20460;-84
2022/06/28 21:04:29;;;;;;;7.50;1.63;;;20.70;89.10;;;;;;4896839;29;20029;-83
2022/06/28 21:06:54;;;;;;;4.03;1.75;;;20.60;89.80;;;;;;4897886;29;20032;-84
2022/06/28 21:09:21;;;;;;;8.20;2.22;;;20.60;90.10;;;;;;4896820;29;20040;-84
2022/06/28 21:11:47;;;;;;;4.28;2.10;;;20.60;90.30;;;;;;4897543;29;20048;-84
2022/06/28 21:14:12;;;;;;;8.25;2.60;;;20.50;90.50;;;;;;4898270;29;20068;-83
2022/06/28 21:16:38;;;;;;;7.45;1.92;;;20.40;90.70;;;;;;4897179;29;20123;-83
2022/06/28 21:19:04;;;;;;;5.57;2.08;;;20.40;91.40;;;;;;4897718;29;20084;-83
2022/06/28 21:21:31;;;;;;;5.40;1.90;;;20.40;91.20;;;;;;4896649;29;20021;-83
2022/06/28 21:23:57;;;;;;;4.10;1.50;;;20.40;91.10;;;;;;4897649;29;20024;-84
2022/06/28 21:26:23;;;;;;;3.97;2.05;;;20.20;91.60;;;;;;4896624;29;20025;-83
2022/06/28 21:28:48;;;;;;;6.25;2.00;;;20.20;91.90;;;;;;4897507;29;20052;-83
2022/06/28 21:31:14;;;;;;;4.47;2.05;;;20.20;92.20;;;;;;4897435;29;20024;-83
2022/06/28 21:33:41;;;;;;;4.55;1.98;;;20.30;92.90;;;;;;4898033;29;20037;-83
2022/06/28 21:36:07;;;;;;;7.60;2.17;;;20.10;92.90;;;;;;4896801;29;20031;-83
2022/06/28 21:38:34;;;;;;;6.35;1.90;;;20.00;92.70;;;;;;4895762;29;20472;-83
2022/06/28 21:41:03;;;;;;;5.95;1.90;;;19.90;92.90;;;;;;4878201;29;20033;-83
2022/06/28 21:43:30;;;;;;;9.68;2.45;;;19.90;92.80;;;;;;4877628;29;20064;-83
2022/06/28 21:45:55;;;;;;;7.32;1.95;;;19.80;92.90;;;;;;4878618;29;20084;-83
2022/06/28 21:48:21;;;;;;;4.53;2.05;;;19.80;93.30;;;;;;4890956;29;20096;-83
2022/06/28 21:50:47;;;;;;;8.55;1.70;;;19.90;94.00;;;;;;4896699;29;20029;-83
2022/06/28 21:53:12;;;;;;;6.13;1.73;;;19.80;93.50;;;;;;4897153;29;20021;-83
2022/06/28 21:55:38;;;;;;;6.90;1.40;;;19.70;93.70;;;;;;4896834;29;20032;-83
2022/06/28 21:58:04;;;;;;;6.38;1.80;;;19.70;93.20;;;;;;4895943;29;20029;-83
2022/06/28 22:00:34;;;;;;;4.20;1.85;;;19.70;93.50;;;;;;4886176;29;20029;-83
2022/06/28 22:03:08;;;;;;;8.82;1.83;;;19.70;93.70;;;;;;4878339;29;20025;-83
2022/06/28 22:05:35;;;;;;;5.40;1.70;;;19.60;94.20;;;;;;4885434;29;20037;-83
2022/06/28 22:08:01;;;;;;;6.65;1.85;;;19.50;94.10;;;;;;4896976;29;20024;-84
2022/06/28 22:10:27;;;;;;;3.47;1.60;;;19.40;93.90;;;;;;4896453;29;20370;-83
2022/06/28 22:12:52;;;;;;;4.85;1.58;;;19.40;94.10;;;;;;4897009;29;20509;-83
2022/06/28 22:15:18;;;;;;;8.57;1.63;;;19.40;94.00;;;;;;4896932;29;20091;-83
2022/06/28 22:17:45;;;;;;;6.88;1.83;;;19.50;93.60;;;;;;4893735;29;20029;-83
2022/06/28 22:20:12;;;;;;;4.70;1.50;;;19.40;93.90;;;;;;4895978;29;20028;-83
2022/06/28 22:22:38;;;;;;;5.65;1.88;;;19.40;94.10;;;;;;4896557;29;20032;-83
2022/06/28 22:25:04;;;;;;;4.72;1.90;;;19.40;93.80;;;;;;4896276;29;20108;-83
2022/06/28 22:27:30;;;;;;;7.15;2.05;;;19.30;94.50;;;;;;4896700;29;20041;-83
2022/06/28 22:29:55;;;;;;;7.95;1.90;;;19.30;94.50;;;;;;4897040;29;20046;-83
2022/06/28 22:32:21;;;;;;;4.07;1.55;;;19.30;94.50;;;;;;4897459;29;20075;-83
2022/06/28 22:34:47;;;;;;;4.22;1.40;;;19.20;95.10;;;;;;4899314;29;20032;-83
2022/06/28 22:37:12;;;;;;;5.63;1.65;;;19.10;95.50;;;;;;4900468;29;20036;-83
2022/06/28 22:39:38;;;;;;;6.05;1.70;;;19.10;95.60;;;;;;4899297;29;20040;-83
2022/06/28 22:42:04;;;;;;;7.03;1.63;;;19.00;95.40;;;;;;4900290;29;20032;-83
2022/06/28 22:44:30;;;;;;;3.70;1.77;;;19.00;95.70;;;;;;4901078;29;20033;-83
2022/06/28 22:46:55;;;;;;;5.10;1.40;;;18.90;95.50;;;;;;4900238;29;20481;-83
2022/06/28 22:49:21;;;;;;;3.30;1.40;;;19.00;95.60;;;;;;4900202;29;20033;-84
2022/06/28 22:51:47;;;;;;;6.63;1.73;;;19.00;96.00;;;;;;4900195;29;20160;-83
2022/06/28 22:54:13;;;;;;;4.10;1.55;;;18.90;96.10;;;;;;4900523;29;20064;-83
2022/06/28 22:56:38;;;;;;;8.10;1.92;;;18.90;96.40;;;;;;4899069;29;20021;-83
2022/06/28 22:59:04;;;;;;;5.57;1.50;;;18.90;96.70;;;;;;4900216;29;20024;-83
2022/06/28 23:01:30;;;;;;;5.80;1.73;;;18.80;96.80;;;;;;4899164;29;20035;-83
2022/06/28 23:03:57;;;;;;;3.90;1.73;;;18.70;96.80;;;;;;4898643;29;20057;-83
2022/06/28 23:06:24;;;;;;;7.50;1.80;;;18.70;96.80;;;;;;4899790;29;20028;-83
2022/06/28 23:08:50;;;;;;;6.32;1.73;;;18.80;96.80;;;;;;4900580;29;20040;-83
2022/06/28 23:11:16;;;;;;;5.88;1.27;;;18.80;96.90;;;;;;4899943;29;20477;-83
2022/06/28 23:13:42;;;;;;;5.65;1.80;;;18.70;97.00;;;;;;4900079;29;20028;-82
2022/06/28 23:16:09;;;;;;;10.77;1.80;;;18.70;97.80;;;;;;4897821;29;20076;-82
2022/06/28 23:18:36;;;;;;;6.68;1.90;;;18.70;97.20;;;;;;4898748;29;20033;-83
2022/06/28 23:21:03;;;;;;;6.45;1.75;;;18.70;97.20;;;;;;4899695;29;20084;-82
2022/06/28 23:23:29;;;;;;;5.47;1.55;;;18.60;97.10;;;;;;4900274;29;20080;-82
2022/06/28 23:25:55;;;;;;;5.18;1.73;;;18.60;97.40;;;;;;4899870;29;20044;-83
2022/06/28 23:28:20;;;;;;;4.38;1.50;;;18.40;97.40;;;;;;4899295;29;20052;-83
2022/06/28 23:30:46;;;;;;;4.78;1.73;;;18.40;97.70;;;;;;4899441;29;20032;-83
2022/06/28 23:33:12;;;;;;;3.38;1.23;;;18.30;97.80;;;;;;4899376;29;20029;-83
2022/06/28 23:35:38;;;;;;;5.95;1.73;;;18.30;97.70;;;;;;4899623;29;20186;-83
2022/06/28 23:38:04;;;;;;;7.53;1.80;;;18.30;97.80;;;;;;4899420;29;20060;-83
2022/06/28 23:40:31;;;;;;;4.95;1.73;;;18.30;97.80;;;;;;4899569;29;20025;-83
2022/06/28 23:42:56;;;;;;;4.35;1.50;;;18.30;97.60;;;;;;4899132;29;20103;-83
2022/06/28 23:45:22;;;;;;;6.15;1.33;;;18.30;97.80;;;;;;4899382;29;20133;-83
2022/06/28 23:47:48;;;;;;;6.80;2.05;;;18.30;97.70;;;;;;4899437;29;20032;-83
2022/06/28 23:50:14;;;;;;;4.10;1.92;;;18.30;97.90;;;;;;4897957;29;20033;-83
2022/06/28 23:52:40;;;;;;;4.10;1.75;;;18.30;98.10;;;;;;4898005;29;20060;-83
2022/06/28 23:55:12;;;;;;;8.32;2.20;;;18.20;98.30;;;;;;4899591;29;20029;-83
2022/06/28 23:57:39;;;;;;;7.38;2.38;;;18.10;98.30;;;;;;4899229;29;20033;-83
